Аэропорт: Сыктывкар. Сыктывкар

ICAO: UUYY

METAR:
2021-04-21 20:30:00
UUYY 212030Z 17010G15MPS CAVOK 09/M04 Q1018 R18/CLRD61 NOSIG RMK QFE755/1007
METAR:
2021-04-21 19:50:00
TAF AMD UUYY 211950Z 2120/2221 16008G15MPS 6000 -SHRA FEW011 BKN018CB TEMPO 2120/2124 18010G20MPS TEMPO 2200/2206 2000 SHRASN BKN007 BKN016CB FM220600 18006G14MPS 9999 BKN017CB TEMPO 2206/2221 6000 -SHRA BKN016CB